sensor_id;sensor_type;location;lat;lon;timestamp;temperature;humidity
58339;DHT22;48278;52.704;6.536;2022-07-06T00:02:01;12.60;99.90
58339;DHT22;48278;52.704;6.536;2022-07-06T00:04:27;12.60;99.90
58339;DHT22;48278;52.704;6.536;2022-07-06T00:06:52;12.60;99.90
58339;DHT22;48278;52.704;6.536;2022-07-06T00:09:18;12.60;99.90
58339;DHT22;48278;52.704;6.536;2022-07-06T00:11:44;12.60;99.90
58339;DHT22;48278;52.704;6.536;2022-07-06T00:14:10;12.70;99.90
58339;DHT22;48278;52.704;6.536;2022-07-06T00:16:37;12.70;99.90
58339;DHT22;48278;52.704;6.536;2022-07-06T00:19:02;12.70;99.90
58339;DHT22;48278;52.704;6.536;2022-07-06T00:21:28;12.80;99.90
58339;DHT22;48278;52.704;6.536;2022-07-06T00:23:54;12.80;99.90
58339;DHT22;48278;52.704;6.536;2022-07-06T00:26:20;12.90;99.90
58339;DHT22;48278;52.704;6.536;2022-07-06T00:28:45;13.00;99.90
58339;DHT22;48278;52.704;6.536;2022-07-06T00:31:11;13.00;99.90
58339;DHT22;48278;52.704;6.536;2022-07-06T00:33:37;13.10;99.90
58339;DHT22;48278;52.704;6.536;2022-07-06T00:36:03;13.10;99.90
58339;DHT22;48278;52.704;6.536;2022-07-06T00:38:29;13.20;99.90
58339;DHT22;48278;52.704;6.536;2022-07-06T00:40:55;13.20;99.90
58339;DHT22;48278;52.704;6.536;2022-07-06T00:43:22;13.20;99.90
58339;DHT22;48278;52.704;6.536;2022-07-06T00:45:48;13.30;99.90
58339;DHT22;48278;52.704;6.536;2022-07-06T00:48:13;13.40;99.90
58339;DHT22;48278;52.704;6.536;2022-07-06T00:50:39;13.40;99.90
58339;DHT22;48278;52.704;6.536;2022-07-06T00:53:06;13.40;99.90
58339;DHT22;48278;52.704;6.536;2022-07-06T00:55:36;13.40;99.90
58339;DHT22;48278;52.704;6.536;2022-07-06T00:58:05;13.40;99.90
58339;DHT22;48278;52.704;6.536;2022-07-06T01:00:32;13.50;99.90
58339;DHT22;48278;52.704;6.536;2022-07-06T01:02:58;13.50;99.90
58339;DHT22;48278;52.704;6.536;2022-07-06T01:05:24;13.50;99.90
58339;DHT22;48278;52.704;6.536;2022-07-06T01:07:51;13.50;99.90
58339;DHT22;48278;52.704;6.536;2022-07-06T01:10:25;13.60;99.90
58339;DHT22;48278;52.704;6.536;2022-07-06T01:12:50;13.60;99.90
58339;DHT22;48278;52.704;6.536;2022-07-06T01:15:21;13.60;99.90
58339;DHT22;48278;52.704;6.536;2022-07-06T01:17:48;13.60;99.90
58339;DHT22;48278;52.704;6.536;2022-07-06T01:20:15;13.70;99.90
58339;DHT22;48278;52.704;6.536;2022-07-06T01:22:41;13.60;99.90
58339;DHT22;48278;52.704;6.536;2022-07-06T01:25:08;13.70;99.90
58339;DHT22;48278;52.704;6.536;2022-07-06T01:27:38;13.60;99.90
58339;DHT22;48278;52.704;6.536;2022-07-06T01:30:06;13.70;99.90
58339;DHT22;48278;52.704;6.536;2022-07-06T01:32:34;13.70;99.90
58339;DHT22;48278;52.704;6.536;2022-07-06T01:35:00;13.70;99.90
58339;DHT22;48278;52.704;6.536;2022-07-06T01:37:27;13.70;99.90
58339;DHT22;48278;52.704;6.536;2022-07-06T01:39:52;13.70;99.90
58339;DHT22;48278;52.704;6.536;2022-07-06T01:42:18;13.70;99.90
58339;DHT22;48278;52.704;6.536;2022-07-06T01:44:44;13.80;99.90
58339;DHT22;48278;52.704;6.536;2022-07-06T01:47:11;13.70;99.90
58339;DHT22;48278;52.704;6.536;2022-07-06T01:49:36;13.80;99.90
58339;DHT22;48278;52.704;6.536;2022-07-06T01:52:03;13.70;99.90
58339;DHT22;48278;52.704;6.536;2022-07-06T01:54:28;13.70;99.90
58339;DHT22;48278;52.704;6.536;2022-07-06T01:56:54;13.70;99.90
58339;DHT22;48278;52.704;6.536;2022-07-06T01:59:20;13.70;99.90
58339;DHT22;48278;52.704;6.536;2022-07-06T02:01:46;13.60;99.90
58339;DHT22;48278;52.704;6.536;2022-07-06T02:04:11;13.60;99.90
58339;DHT22;48278;52.704;6.536;2022-07-06T02:06:37;13.70;99.90
58339;DHT22;48278;52.704;6.536;2022-07-06T02:09:03;13.60;99.90
58339;DHT22;48278;52.704;6.536;2022-07-06T02:11:29;13.60;99.90
58339;DHT22;48278;52.704;6.536;2022-07-06T02:13:55;13.60;99.90
58339;DHT22;48278;52.704;6.536;2022-07-06T02:16:20;13.60;99.90
58339;DHT22;48278;52.704;6.536;2022-07-06T02:18:46;13.60;99.90
58339;DHT22;48278;52.704;6.536;2022-07-06T02:21:12;13.70;99.90
58339;DHT22;48278;52.704;6.536;2022-07-06T02:23:37;13.70;99.90
58339;DHT22;48278;52.704;6.536;2022-07-06T02:26:04;13.60;99.90
58339;DHT22;48278;52.704;6.536;2022-07-06T02:28:29;13.60;99.90
58339;DHT22;48278;52.704;6.536;2022-07-06T02:30:55;13.60;99.90
58339;DHT22;48278;52.704;6.536;2022-07-06T02:33:21;13.60;99.90
58339;DHT22;48278;52.704;6.536;2022-07-06T02:35:47;13.60;99.90
58339;DHT22;48278;52.704;6.536;2022-07-06T02:38:12;13.60;99.90
58339;DHT22;48278;52.704;6.536;2022-07-06T02:40:39;13.50;99.90
58339;DHT22;48278;52.704;6.536;2022-07-06T02:43:05;13.50;99.90
58339;DHT22;48278;52.704;6.536;2022-07-06T02:45:31;13.50;99.90
58339;DHT22;48278;52.704;6.536;2022-07-06T02:47:57;13.50;99.90
58339;DHT22;48278;52.704;6.536;2022-07-06T02:50:24;13.50;99.90
58339;DHT22;48278;52.704;6.536;2022-07-06T02:52:49;13.50;99.90
58339;DHT22;48278;52.704;6.536;2022-07-06T02:55:16;13.50;99.90
58339;DHT22;48278;52.704;6.536;2022-07-06T02:57:41;13.50;99.90
58339;DHT22;48278;52.704;6.536;2022-07-06T03:00:08;13.50;99.90
58339;DHT22;48278;52.704;6.536;2022-07-06T03:02:35;13.50;99.90
58339;DHT22;48278;52.704;6.536;2022-07-06T03:05:01;13.50;99.90
58339;DHT22;48278;52.704;6.536;2022-07-06T03:07:26;13.50;99.90
58339;DHT22;48278;52.704;6.536;2022-07-06T03:09:52;13.50;99.90
58339;DHT22;48278;52.704;6.536;2022-07-06T03:12:18;13.40;99.90
58339;DHT22;48278;52.704;6.536;2022-07-06T03:14:43;13.40;99.90
58339;DHT22;48278;52.704;6.536;2022-07-06T03:17:10;13.40;99.90
58339;DHT22;48278;52.704;6.536;2022-07-06T03:19:36;13.40;99.90
58339;DHT22;48278;52.704;6.536;2022-07-06T03:22:02;13.40;99.90
58339;DHT22;48278;52.704;6.536;2022-07-06T03:24:28;13.40;99.90
58339;DHT22;48278;52.704;6.536;2022-07-06T03:26:53;13.40;99.90
58339;DHT22;48278;52.704;6.536;2022-07-06T03:29:19;13.50;99.90
58339;DHT22;48278;52.704;6.536;2022-07-06T03:31:46;13.50;99.90
58339;DHT22;48278;52.704;6.536;2022-07-06T03:34:11;13.40;99.90
58339;DHT22;48278;52.704;6.536;2022-07-06T03:36:37;13.40;99.90
58339;DHT22;48278;52.704;6.536;2022-07-06T03:39:03;13.50;99.90
58339;DHT22;48278;52.704;6.536;2022-07-06T03:41:29;13.40;99.90
58339;DHT22;48278;52.704;6.536;2022-07-06T03:43:55;13.50;99.90
58339;DHT22;48278;52.704;6.536;2022-07-06T03:46:20;13.40;99.90
58339;DHT22;48278;52.704;6.536;2022-07-06T03:48:46;13.50;99.90
58339;DHT22;48278;52.704;6.536;2022-07-06T03:51:12;13.50;99.90
58339;DHT22;48278;52.704;6.536;2022-07-06T03:53:38;13.50;99.90
58339;DHT22;48278;52.704;6.536;2022-07-06T03:56:04;13.50;99.90
58339;DHT22;48278;52.704;6.536;2022-07-06T03:58:48;13.50;99.90
58339;DHT22;48278;52.704;6.536;2022-07-06T04:01:14;13.50;99.90
58339;DHT22;48278;52.704;6.536;2022-07-06T04:03:39;13.50;99.90
58339;DHT22;48278;52.704;6.536;2022-07-06T04:06:05;13.60;99.90
58339;DHT22;48278;52.704;6.536;2022-07-06T04:08:31;13.60;99.90
58339;DHT22;48278;52.704;6.536;2022-07-06T04:10:57;13.60;99.90
58339;DHT22;48278;52.704;6.536;2022-07-06T04:13:23;13.60;99.90
58339;DHT22;48278;52.704;6.536;2022-07-06T04:15:51;13.70;99.90
58339;DHT22;48278;52.704;6.536;2022-07-06T04:18:17;13.70;99.90
58339;DHT22;48278;52.704;6.536;2022-07-06T04:20:42;13.70;99.90
58339;DHT22;48278;52.704;6.536;2022-07-06T04:23:08;13.70;99.90
58339;DHT22;48278;52.704;6.536;2022-07-06T04:25:34;13.80;99.90
58339;DHT22;48278;52.704;6.536;2022-07-06T04:28:00;13.70;99.90
58339;DHT22;48278;52.704;6.536;2022-07-06T04:30:26;13.80;99.90
58339;DHT22;48278;52.704;6.536;2022-07-06T04:32:52;13.90;99.90
58339;DHT22;48278;52.704;6.536;2022-07-06T04:35:18;14.00;99.90
58339;DHT22;48278;52.704;6.536;2022-07-06T04:37:43;14.00;99.90
58339;DHT22;48278;52.704;6.536;2022-07-06T04:40:11;14.10;99.90
58339;DHT22;48278;52.704;6.536;2022-07-06T04:42:38;14.10;99.90
58339;DHT22;48278;52.704;6.536;2022-07-06T04:45:04;14.20;99.90
58339;DHT22;48278;52.704;6.536;2022-07-06T04:47:30;14.20;99.90
58339;DHT22;48278;52.704;6.536;2022-07-06T04:49:56;14.30;99.90
58339;DHT22;48278;52.704;6.536;2022-07-06T04:52:22;14.40;99.90
58339;DHT22;48278;52.704;6.536;2022-07-06T04:54:48;14.40;99.90
58339;DHT22;48278;52.704;6.536;2022-07-06T04:57:14;14.50;99.90
58339;DHT22;48278;52.704;6.536;2022-07-06T04:59:39;14.60;99.90
58339;DHT22;48278;52.704;6.536;2022-07-06T05:02:06;14.70;99.90
58339;DHT22;48278;52.704;6.536;2022-07-06T05:04:32;14.70;99.90
58339;DHT22;48278;52.704;6.536;2022-07-06T05:06:58;14.70;99.90
58339;DHT22;48278;52.704;6.536;2022-07-06T05:09:24;14.70;99.90
58339;DHT22;48278;52.704;6.536;2022-07-06T05:11:49;14.70;99.90
58339;DHT22;48278;52.704;6.536;2022-07-06T05:14:15;14.70;99.90
58339;DHT22;48278;52.704;6.536;2022-07-06T05:16:41;14.70;99.90
58339;DHT22;48278;52.704;6.536;2022-07-06T05:19:12;14.60;99.90
58339;DHT22;48278;52.704;6.536;2022-07-06T05:21:38;14.60;99.90
58339;DHT22;48278;52.704;6.536;2022-07-06T05:24:05;14.60;99.90
58339;DHT22;48278;52.704;6.536;2022-07-06T05:26:31;14.70;99.90
58339;DHT22;48278;52.704;6.536;2022-07-06T05:28:57;14.70;99.90
58339;DHT22;48278;52.704;6.536;2022-07-06T05:31:24;14.70;99.90
58339;DHT22;48278;52.704;6.536;2022-07-06T05:33:50;14.70;99.90
58339;DHT22;48278;52.704;6.536;2022-07-06T05:36:16;14.70;99.90
58339;DHT22;48278;52.704;6.536;2022-07-06T05:38:41;14.80;99.90
58339;DHT22;48278;52.704;6.536;2022-07-06T05:41:07;14.90;99.90
58339;DHT22;48278;52.704;6.536;2022-07-06T05:43:36;15.00;99.90
58339;DHT22;48278;52.704;6.536;2022-07-06T05:46:04;15.00;99.90
58339;DHT22;48278;52.704;6.536;2022-07-06T05:48:30;14.90;99.90
58339;DHT22;48278;52.704;6.536;2022-07-06T05:51:14;14.90;99.90
58339;DHT22;48278;52.704;6.536;2022-07-06T05:53:40;15.00;99.90
58339;DHT22;48278;52.704;6.536;2022-07-06T05:56:06;15.00;99.90
58339;DHT22;48278;52.704;6.536;2022-07-06T05:58:31;15.10;99.90
58339;DHT22;48278;52.704;6.536;2022-07-06T06:00:57;15.10;99.90
58339;DHT22;48278;52.704;6.536;2022-07-06T06:03:23;15.20;99.90
58339;DHT22;48278;52.704;6.536;2022-07-06T06:05:49;15.20;99.90
58339;DHT22;48278;52.704;6.536;2022-07-06T06:08:15;15.20;99.90
58339;DHT22;48278;52.704;6.536;2022-07-06T06:10:41;15.40;99.90
58339;DHT22;48278;52.704;6.536;2022-07-06T06:13:06;15.40;99.90
58339;DHT22;48278;52.704;6.536;2022-07-06T06:15:32;15.60;99.90
58339;DHT22;48278;52.704;6.536;2022-07-06T06:17:58;15.80;99.90
58339;DHT22;48278;52.704;6.536;2022-07-06T06:20:24;16.00;99.90
58339;DHT22;48278;52.704;6.536;2022-07-06T06:22:52;16.20;99.90
58339;DHT22;48278;52.704;6.536;2022-07-06T06:25:20;16.30;99.90
58339;DHT22;48278;52.704;6.536;2022-07-06T06:27:46;16.40;99.90
58339;DHT22;48278;52.704;6.536;2022-07-06T06:30:13;16.30;99.90
58339;DHT22;48278;52.704;6.536;2022-07-06T06:32:39;16.30;99.90
58339;DHT22;48278;52.704;6.536;2022-07-06T06:35:06;16.40;99.90
58339;DHT22;48278;52.704;6.536;2022-07-06T06:37:32;16.40;99.90
58339;DHT22;48278;52.704;6.536;2022-07-06T06:40:00;16.50;99.90
58339;DHT22;48278;52.704;6.536;2022-07-06T06:42:26;16.50;99.90
58339;DHT22;48278;52.704;6.536;2022-07-06T06:44:51;16.70;99.90
58339;DHT22;48278;52.704;6.536;2022-07-06T06:47:17;16.80;99.90
58339;DHT22;48278;52.704;6.536;2022-07-06T06:49:44;16.90;99.90
58339;DHT22;48278;52.704;6.536;2022-07-06T06:52:10;16.90;99.90
58339;DHT22;48278;52.704;6.536;2022-07-06T06:54:35;16.80;99.90
58339;DHT22;48278;52.704;6.536;2022-07-06T06:57:01;17.00;99.90
58339;DHT22;48278;52.704;6.536;2022-07-06T06:59:27;17.00;99.90
58339;DHT22;48278;52.704;6.536;2022-07-06T07:01:53;16.90;99.90
58339;DHT22;48278;52.704;6.536;2022-07-06T07:04:18;17.00;99.70
58339;DHT22;48278;52.704;6.536;2022-07-06T07:06:44;17.20;99.90
58339;DHT22;48278;52.704;6.536;2022-07-06T07:09:10;17.20;99.60
58339;DHT22;48278;52.704;6.536;2022-07-06T07:11:36;17.30;99.90
58339;DHT22;48278;52.704;6.536;2022-07-06T07:14:01;17.10;98.90
58339;DHT22;48278;52.704;6.536;2022-07-06T07:16:28;16.90;99.20
58339;DHT22;48278;52.704;6.536;2022-07-06T07:18:54;16.80;99.60
58339;DHT22;48278;52.704;6.536;2022-07-06T07:21:19;17.10;99.80
58339;DHT22;48278;52.704;6.536;2022-07-06T07:23:45;17.00;99.90
58339;DHT22;48278;52.704;6.536;2022-07-06T07:26:11;17.00;99.90
58339;DHT22;48278;52.704;6.536;2022-07-06T07:28:37;16.90;99.90
58339;DHT22;48278;52.704;6.536;2022-07-06T07:31:03;16.90;99.30
58339;DHT22;48278;52.704;6.536;2022-07-06T07:33:29;16.90;99.10
58339;DHT22;48278;52.704;6.536;2022-07-06T07:35:55;17.10;99.60
58339;DHT22;48278;52.704;6.536;2022-07-06T07:38:20;17.20;99.40
58339;DHT22;48278;52.704;6.536;2022-07-06T07:40:46;17.20;98.70
58339;DHT22;48278;52.704;6.536;2022-07-06T07:43:12;17.20;98.50
58339;DHT22;48278;52.704;6.536;2022-07-06T07:45:37;17.30;99.00
58339;DHT22;48278;52.704;6.536;2022-07-06T07:48:04;17.40;98.80
58339;DHT22;48278;52.704;6.536;2022-07-06T07:50:29;17.30;98.50
58339;DHT22;48278;52.704;6.536;2022-07-06T07:52:55;17.30;98.50
58339;DHT22;48278;52.704;6.536;2022-07-06T07:55:21;17.10;98.10
58339;DHT22;48278;52.704;6.536;2022-07-06T07:57:47;17.20;98.60
58339;DHT22;48278;52.704;6.536;2022-07-06T08:00:13;17.40;98.50
58339;DHT22;48278;52.704;6.536;2022-07-06T08:02:39;17.60;98.60
58339;DHT22;48278;52.704;6.536;2022-07-06T08:05:05;17.70;98.30
58339;DHT22;48278;52.704;6.536;2022-07-06T08:07:31;17.90;97.80
58339;DHT22;48278;52.704;6.536;2022-07-06T08:09:57;18.00;97.10
58339;DHT22;48278;52.704;6.536;2022-07-06T08:12:23;18.10;96.50
58339;DHT22;48278;52.704;6.536;2022-07-06T08:14:49;18.20;96.80
58339;DHT22;48278;52.704;6.536;2022-07-06T08:17:14;18.30;97.00
58339;DHT22;48278;52.704;6.536;2022-07-06T08:19:40;18.40;96.20
58339;DHT22;48278;52.704;6.536;2022-07-06T08:22:06;18.60;96.60
58339;DHT22;48278;52.704;6.536;2022-07-06T08:24:36;18.50;96.00
58339;DHT22;48278;52.704;6.536;2022-07-06T08:27:02;18.60;96.50
58339;DHT22;48278;52.704;6.536;2022-07-06T08:29:29;18.70;95.90
58339;DHT22;48278;52.704;6.536;2022-07-06T08:31:55;18.60;96.00
58339;DHT22;48278;52.704;6.536;2022-07-06T08:34:22;18.50;95.70
58339;DHT22;48278;52.704;6.536;2022-07-06T08:36:48;18.50;95.80
58339;DHT22;48278;52.704;6.536;2022-07-06T08:39:14;18.50;95.40
58339;DHT22;48278;52.704;6.536;2022-07-06T08:41:41;18.50;95.50
58339;DHT22;48278;52.704;6.536;2022-07-06T08:44:08;18.70;95.70
58339;DHT22;48278;52.704;6.536;2022-07-06T08:46:37;18.60;95.40
58339;DHT22;48278;52.704;6.536;2022-07-06T08:49:04;18.60;95.30
58339;DHT22;48278;52.704;6.536;2022-07-06T08:51:31;18.60;95.50
58339;DHT22;48278;52.704;6.536;2022-07-06T08:53:57;18.80;95.40
58339;DHT22;48278;52.704;6.536;2022-07-06T08:56:24;18.50;94.80
58339;DHT22;48278;52.704;6.536;2022-07-06T08:58:50;18.50;94.40
58339;DHT22;48278;52.704;6.536;2022-07-06T09:01:16;18.80;94.90
58339;DHT22;48278;52.704;6.536;2022-07-06T09:03:45;18.50;94.20
58339;DHT22;48278;52.704;6.536;2022-07-06T09:06:14;18.80;94.80
58339;DHT22;48278;52.704;6.536;2022-07-06T09:08:43;19.20;94.70
58339;DHT22;48278;52.704;6.536;2022-07-06T09:11:09;19.40;94.30
58339;DHT22;48278;52.704;6.536;2022-07-06T09:13:35;19.50;94.30
58339;DHT22;48278;52.704;6.536;2022-07-06T09:16:15;19.40;94.50
58339;DHT22;48278;52.704;6.536;2022-07-06T09:18:44;19.00;94.40
58339;DHT22;48278;52.704;6.536;2022-07-06T09:21:10;18.80;94.80
58339;DHT22;48278;52.704;6.536;2022-07-06T09:23:37;18.60;95.20
58339;DHT22;48278;52.704;6.536;2022-07-06T09:26:05;18.50;95.40
58339;DHT22;48278;52.704;6.536;2022-07-06T09:28:44;18.30;95.00
58339;DHT22;48278;52.704;6.536;2022-07-06T09:31:10;18.10;95.10
58339;DHT22;48278;52.704;6.536;2022-07-06T09:33:37;18.30;95.20
58339;DHT22;48278;52.704;6.536;2022-07-06T09:36:03;18.50;94.70
58339;DHT22;48278;52.704;6.536;2022-07-06T09:38:31;18.90;94.60
58339;DHT22;48278;52.704;6.536;2022-07-06T09:40:57;19.30;93.90
58339;DHT22;48278;52.704;6.536;2022-07-06T09:43:24;19.60;92.60
58339;DHT22;48278;52.704;6.536;2022-07-06T09:45:55;19.40;91.20
58339;DHT22;48278;52.704;6.536;2022-07-06T09:48:21;19.40;92.10
58339;DHT22;48278;52.704;6.536;2022-07-06T09:50:59;19.50;92.10
58339;DHT22;48278;52.704;6.536;2022-07-06T09:53:26;19.30;93.90
58339;DHT22;48278;52.704;6.536;2022-07-06T09:55:56;18.20;91.70
58339;DHT22;48278;52.704;6.536;2022-07-06T09:58:24;19.40;91.30
58339;DHT22;48278;52.704;6.536;2022-07-06T10:00:50;19.40;90.90
58339;DHT22;48278;52.704;6.536;2022-07-06T10:03:17;19.50;90.70
58339;DHT22;48278;52.704;6.536;2022-07-06T10:05:45;19.80;91.20
58339;DHT22;48278;52.704;6.536;2022-07-06T10:08:13;20.30;88.90
58339;DHT22;48278;52.704;6.536;2022-07-06T10:10:41;19.90;89.40
58339;DHT22;48278;52.704;6.536;2022-07-06T10:13:08;20.20;89.90
58339;DHT22;48278;52.704;6.536;2022-07-06T10:15:36;20.00;87.00
58339;DHT22;48278;52.704;6.536;2022-07-06T10:18:09;19.80;87.60
58339;DHT22;48278;52.704;6.536;2022-07-06T10:20:37;20.00;88.90
58339;DHT22;48278;52.704;6.536;2022-07-06T10:23:06;19.70;85.30
58339;DHT22;48278;52.704;6.536;2022-07-06T10:25:33;19.80;87.70
58339;DHT22;48278;52.704;6.536;2022-07-06T10:28:00;20.00;89.90
58339;DHT22;48278;52.704;6.536;2022-07-06T10:30:27;20.30;90.40
58339;DHT22;48278;52.704;6.536;2022-07-06T10:32:55;20.40;90.50
58339;DHT22;48278;52.704;6.536;2022-07-06T10:35:21;20.80;89.70
58339;DHT22;48278;52.704;6.536;2022-07-06T10:38:06;21.00;88.40
58339;DHT22;48278;52.704;6.536;2022-07-06T10:40:37;20.50;87.80
58339;DHT22;48278;52.704;6.536;2022-07-06T10:43:22;20.90;88.10
58339;DHT22;48278;52.704;6.536;2022-07-06T10:53:16;20.50;89.10
58339;DHT22;48278;52.704;6.536;2022-07-06T10:55:45;20.50;89.20
58339;DHT22;48278;52.704;6.536;2022-07-06T11:01:05;20.20;88.10
58339;DHT22;48278;52.704;6.536;2022-07-06T11:06:08;20.20;88.10
58339;DHT22;48278;52.704;6.536;2022-07-06T11:11:26;20.40;84.60
58339;DHT22;48278;52.704;6.536;2022-07-06T11:14:21;20.50;86.00
58339;DHT22;48278;52.704;6.536;2022-07-06T11:19:15;20.90;86.80
58339;DHT22;48278;52.704;6.536;2022-07-06T11:21:57;21.00;84.70
58339;DHT22;48278;52.704;6.536;2022-07-06T11:24:29;21.10;84.70
58339;DHT22;48278;52.704;6.536;2022-07-06T11:26:56;21.10;85.10
58339;DHT22;48278;52.704;6.536;2022-07-06T11:29:23;20.90;85.40
58339;DHT22;48278;52.704;6.536;2022-07-06T11:31:54;20.70;87.20
58339;DHT22;48278;52.704;6.536;2022-07-06T11:34:25;20.80;88.10
58339;DHT22;48278;52.704;6.536;2022-07-06T11:36:59;20.90;87.30
58339;DHT22;48278;52.704;6.536;2022-07-06T11:39:29;20.90;86.40
58339;DHT22;48278;52.704;6.536;2022-07-06T11:41:56;21.10;86.30
58339;DHT22;48278;52.704;6.536;2022-07-06T11:44:22;21.10;85.70
58339;DHT22;48278;52.704;6.536;2022-07-06T11:46:49;20.90;86.50
58339;DHT22;48278;52.704;6.536;2022-07-06T11:49:15;21.10;85.80
58339;DHT22;48278;52.704;6.536;2022-07-06T11:51:42;21.20;86.60
58339;DHT22;48278;52.704;6.536;2022-07-06T11:54:13;21.30;85.40
58339;DHT22;48278;52.704;6.536;2022-07-06T11:57:07;21.40;85.40
58339;DHT22;48278;52.704;6.536;2022-07-06T11:59:34;21.30;85.80
58339;DHT22;48278;52.704;6.536;2022-07-06T12:04:31;21.00;85.90
58339;DHT22;48278;52.704;6.536;2022-07-06T12:07:03;21.20;85.90
58339;DHT22;48278;52.704;6.536;2022-07-06T12:09:30;21.20;86.20
58339;DHT22;48278;52.704;6.536;2022-07-06T12:11:56;21.40;85.90
58339;DHT22;48278;52.704;6.536;2022-07-06T12:14:22;21.40;86.10
58339;DHT22;48278;52.704;6.536;2022-07-06T12:16:49;21.70;84.90
58339;DHT22;48278;52.704;6.536;2022-07-06T12:19:16;21.60;83.70
58339;DHT22;48278;52.704;6.536;2022-07-06T12:21:50;21.70;83.50
58339;DHT22;48278;52.704;6.536;2022-07-06T12:24:20;21.50;83.00
58339;DHT22;48278;52.704;6.536;2022-07-06T12:26:46;21.40;83.10
58339;DHT22;48278;52.704;6.536;2022-07-06T12:29:13;21.50;83.40
58339;DHT22;48278;52.704;6.536;2022-07-06T12:31:47;21.70;83.20
58339;DHT22;48278;52.704;6.536;2022-07-06T12:36:48;22.00;81.10
58339;DHT22;48278;52.704;6.536;2022-07-06T12:39:16;21.70;80.30
58339;DHT22;48278;52.704;6.536;2022-07-06T12:42:02;22.00;81.60
58339;DHT22;48278;52.704;6.536;2022-07-06T12:44:29;22.20;80.70
58339;DHT22;48278;52.704;6.536;2022-07-06T12:47:03;22.40;79.10
58339;DHT22;48278;52.704;6.536;2022-07-06T12:49:30;22.60;79.20
58339;DHT22;48278;52.704;6.536;2022-07-06T12:52:00;22.30;76.70
58339;DHT22;48278;52.704;6.536;2022-07-06T12:54:29;22.30;77.30
58339;DHT22;48278;52.704;6.536;2022-07-06T12:56:57;22.50;76.50
58339;DHT22;48278;52.704;6.536;2022-07-06T12:59:23;22.50;75.00
58339;DHT22;48278;52.704;6.536;2022-07-06T13:01:53;22.60;78.10
58339;DHT22;48278;52.704;6.536;2022-07-06T13:04:26;22.70;77.20
58339;DHT22;48278;52.704;6.536;2022-07-06T13:06:52;22.90;76.80
58339;DHT22;48278;52.704;6.536;2022-07-06T13:09:19;23.00;75.00
58339;DHT22;48278;52.704;6.536;2022-07-06T13:11:47;22.70;76.30
58339;DHT22;48278;52.704;6.536;2022-07-06T13:14:14;23.10;76.40
58339;DHT22;48278;52.704;6.536;2022-07-06T13:16:40;23.20;75.00
58339;DHT22;48278;52.704;6.536;2022-07-06T13:19:06;22.70;75.50
58339;DHT22;48278;52.704;6.536;2022-07-06T13:21:33;23.00;76.00
58339;DHT22;48278;52.704;6.536;2022-07-06T13:23:58;23.10;75.60
58339;DHT22;48278;52.704;6.536;2022-07-06T13:26:24;23.10;76.40
58339;DHT22;48278;52.704;6.536;2022-07-06T13:29:00;22.70;75.20
58339;DHT22;48278;52.704;6.536;2022-07-06T13:31:26;22.80;75.30
58339;DHT22;48278;52.704;6.536;2022-07-06T13:33:53;22.50;73.80
58339;DHT22;48278;52.704;6.536;2022-07-06T13:36:18;22.20;75.40
58339;DHT22;48278;52.704;6.536;2022-07-06T13:38:44;22.10;76.20
58339;DHT22;48278;52.704;6.536;2022-07-06T13:41:10;21.90;76.50
58339;DHT22;48278;52.704;6.536;2022-07-06T13:43:36;21.90;76.80
58339;DHT22;48278;52.704;6.536;2022-07-06T13:46:06;21.90;76.10
58339;DHT22;48278;52.704;6.536;2022-07-06T13:48:34;22.20;75.30
58339;DHT22;48278;52.704;6.536;2022-07-06T13:51:00;22.40;75.00
58339;DHT22;48278;52.704;6.536;2022-07-06T13:53:26;22.60;74.10
58339;DHT22;48278;52.704;6.536;2022-07-06T13:55:52;22.60;72.70
58339;DHT22;48278;52.704;6.536;2022-07-06T13:58:19;22.70;72.60
58339;DHT22;48278;52.704;6.536;2022-07-06T14:00:45;22.90;72.20
58339;DHT22;48278;52.704;6.536;2022-07-06T14:03:11;22.80;72.20
58339;DHT22;48278;52.704;6.536;2022-07-06T14:05:37;22.40;71.70
58339;DHT22;48278;52.704;6.536;2022-07-06T14:08:02;22.50;67.80
58339;DHT22;48278;52.704;6.536;2022-07-06T14:10:28;22.40;70.20
58339;DHT22;48278;52.704;6.536;2022-07-06T14:12:54;22.40;70.20
58339;DHT22;48278;52.704;6.536;2022-07-06T14:15:20;22.30;70.80
58339;DHT22;48278;52.704;6.536;2022-07-06T14:17:46;22.30;70.60
58339;DHT22;48278;52.704;6.536;2022-07-06T14:20:16;22.20;70.30
58339;DHT22;48278;52.704;6.536;2022-07-06T14:22:43;22.00;70.40
58339;DHT22;48278;52.704;6.536;2022-07-06T14:25:09;22.00;71.40
58339;DHT22;48278;52.704;6.536;2022-07-06T14:27:35;22.00;71.80
58339;DHT22;48278;52.704;6.536;2022-07-06T14:30:02;21.90;72.20
58339;DHT22;48278;52.704;6.536;2022-07-06T14:32:28;21.60;72.80
58339;DHT22;48278;52.704;6.536;2022-07-06T14:34:54;21.50;73.30
58339;DHT22;48278;52.704;6.536;2022-07-06T14:37:19;21.40;74.00
58339;DHT22;48278;52.704;6.536;2022-07-06T14:39:45;21.30;73.90
58339;DHT22;48278;52.704;6.536;2022-07-06T14:42:12;21.10;75.00
58339;DHT22;48278;52.704;6.536;2022-07-06T14:44:38;20.90;76.00
58339;DHT22;48278;52.704;6.536;2022-07-06T14:47:04;21.10;75.50
58339;DHT22;48278;52.704;6.536;2022-07-06T14:49:30;21.10;75.00
58339;DHT22;48278;52.704;6.536;2022-07-06T14:51:56;21.00;75.40
58339;DHT22;48278;52.704;6.536;2022-07-06T14:54:23;21.10;75.20
58339;DHT22;48278;52.704;6.536;2022-07-06T14:56:49;21.10;74.20
58339;DHT22;48278;52.704;6.536;2022-07-06T14:59:15;20.90;75.20
58339;DHT22;48278;52.704;6.536;2022-07-06T15:01:41;21.00;75.80
58339;DHT22;48278;52.704;6.536;2022-07-06T15:04:08;21.00;75.60
58339;DHT22;48278;52.704;6.536;2022-07-06T15:06:34;21.10;75.90
58339;DHT22;48278;52.704;6.536;2022-07-06T15:09:00;21.20;76.30
58339;DHT22;48278;52.704;6.536;2022-07-06T15:11:33;21.20;76.50
58339;DHT22;48278;52.704;6.536;2022-07-06T15:13:59;21.30;76.20
58339;DHT22;48278;52.704;6.536;2022-07-06T15:16:26;21.10;75.90
58339;DHT22;48278;52.704;6.536;2022-07-06T15:18:52;21.00;76.50
58339;DHT22;48278;52.704;6.536;2022-07-06T15:21:19;20.90;77.20
58339;DHT22;48278;52.704;6.536;2022-07-06T15:23:44;20.90;76.80
58339;DHT22;48278;52.704;6.536;2022-07-06T15:26:10;20.90;77.10
58339;DHT22;48278;52.704;6.536;2022-07-06T15:28:36;20.70;78.10
58339;DHT22;48278;52.704;6.536;2022-07-06T15:31:02;20.70;78.30
58339;DHT22;48278;52.704;6.536;2022-07-06T15:33:27;20.80;78.50
58339;DHT22;48278;52.704;6.536;2022-07-06T15:35:53;20.80;78.70
58339;DHT22;48278;52.704;6.536;2022-07-06T15:38:19;20.80;79.00
58339;DHT22;48278;52.704;6.536;2022-07-06T15:40:45;20.80;78.90
58339;DHT22;48278;52.704;6.536;2022-07-06T15:43:29;20.80;78.80
58339;DHT22;48278;52.704;6.536;2022-07-06T15:45:57;20.80;79.10
58339;DHT22;48278;52.704;6.536;2022-07-06T15:48:28;20.40;79.80
58339;DHT22;48278;52.704;6.536;2022-07-06T15:50:54;20.50;80.40
58339;DHT22;48278;52.704;6.536;2022-07-06T15:53:21;20.60;80.60